createdAt,value
2022-11-30T00:03:08.735Z,4.75
2022-11-30T00:06:30.290Z,4.75
2022-11-30T00:09:53.235Z,4.74
2022-11-30T00:13:14.891Z,4.73
2022-11-30T00:16:36.568Z,4.74
2022-11-30T00:19:58.184Z,4.73
2022-11-30T00:23:20.503Z,4.73
2022-11-30T00:26:44.148Z,4.72
2022-11-30T00:30:07.195Z,4.73
2022-11-30T00:33:28.996Z,4.71
2022-11-30T00:36:50.704Z,4.71
2022-11-30T00:40:14.194Z,4.70
2022-11-30T00:43:37.555Z,4.70
2022-11-30T00:46:59.147Z,4.68
2022-11-30T00:50:20.559Z,4.70
2022-11-30T00:53:42.682Z,4.69
2022-11-30T00:57:04.335Z,4.68
2022-11-30T01:00:27.671Z,4.66
2022-11-30T01:03:49.220Z,4.66
2022-11-30T01:07:11.079Z,4.66
2022-11-30T01:10:34.298Z,4.66
2022-11-30T01:13:56.758Z,4.65
2022-11-30T01:17:19.698Z,4.64
2022-11-30T01:20:42.602Z,4.66
2022-11-30T01:24:04.231Z,4.64
2022-11-30T01:27:25.840Z,4.63
2022-11-30T01:30:56.328Z,4.63
2022-11-30T01:34:19.499Z,4.65
2022-11-30T01:37:40.956Z,4.62
2022-11-30T01:41:03.220Z,4.60
2022-11-30T01:44:52.342Z,4.61
2022-11-30T01:48:14.063Z,4.61
2022-11-30T01:51:41.468Z,4.62
2022-11-30T01:55:12.924Z,4.60
2022-11-30T01:58:36.661Z,4.58
2022-11-30T02:01:59.388Z,4.57
2022-11-30T02:05:22.304Z,4.58
2022-11-30T02:08:45.590Z,4.58
2022-11-30T02:12:10.139Z,4.57
2022-11-30T02:15:39.420Z,4.57
2022-11-30T02:19:12.695Z,4.55
2022-11-30T02:22:49.710Z,4.56
2022-11-30T02:26:29.082Z,4.57
2022-11-30T02:29:57.510Z,4.57
2022-11-30T02:33:22.431Z,4.55
2022-11-30T02:36:46.874Z,4.54
2022-11-30T02:40:10.488Z,4.54
2022-11-30T02:43:35.219Z,4.54
2022-11-30T02:47:19.621Z,4.52
2022-11-30T02:50:46.987Z,4.52
2022-11-30T02:54:09.426Z,4.52
2022-11-30T02:57:31.008Z,4.50
2022-11-30T03:00:53.043Z,4.50
2022-11-30T03:04:16.152Z,4.50
2022-11-30T03:07:38.297Z,4.49
2022-11-30T03:11:03.154Z,4.46
2022-11-30T03:14:25.052Z,4.47
2022-11-30T03:17:47.004Z,4.46
2022-11-30T03:21:11.835Z,4.46
2022-11-30T03:24:33.500Z,4.47
2022-11-30T03:27:55.458Z,4.47
2022-11-30T03:31:17.090Z,4.47
2022-11-30T03:34:39.034Z,4.51
2022-11-30T03:38:02.323Z,4.48
2022-11-30T03:41:24.251Z,4.49
2022-11-30T03:44:46.209Z,4.48
2022-11-30T03:48:08.142Z,4.51
2022-11-30T03:51:29.871Z,4.50
2022-11-30T03:54:52.590Z,4.49
2022-11-30T03:58:14.553Z,4.51
2022-11-30T04:01:37.030Z,4.51
2022-11-30T04:04:58.613Z,4.49
2022-11-30T04:08:20.042Z,4.49
2022-11-30T04:11:43.338Z,4.46
2022-11-30T04:15:05.580Z,4.47
2022-11-30T04:18:29.119Z,4.45
2022-11-30T04:21:51.555Z,4.44
2022-11-30T04:25:13.596Z,4.45
2022-11-30T04:28:36.930Z,4.46
2022-11-30T04:31:58.663Z,4.43
2022-11-30T04:35:20.611Z,4.44
2022-11-30T04:38:42.680Z,4.42
2022-11-30T04:42:04.757Z,4.43
2022-11-30T04:45:32.480Z,4.43
2022-11-30T04:48:56.770Z,4.43
2022-11-30T04:52:18.693Z,4.41
2022-11-30T04:55:40.451Z,4.43
2022-11-30T04:59:02.826Z,4.42
2022-11-30T05:02:26.279Z,4.43
2022-11-30T05:05:48.482Z,4.43
2022-11-30T05:09:10.549Z,4.41
2022-11-30T05:12:32.650Z,4.42
2022-11-30T05:15:54.671Z,4.43
2022-11-30T05:19:17.462Z,4.43
2022-11-30T05:22:39.275Z,4.43
2022-11-30T05:26:02.811Z,4.42
2022-11-30T05:29:24.687Z,4.41
2022-11-30T05:32:46.625Z,4.40
2022-11-30T05:36:11.175Z,4.39
2022-11-30T05:39:32.963Z,4.39
2022-11-30T05:42:57.673Z,4.39
2022-11-30T05:46:19.241Z,4.38
2022-11-30T05:49:40.662Z,4.40
2022-11-30T05:53:04.066Z,4.41
2022-11-30T05:56:25.813Z,4.41
2022-11-30T05:59:47.715Z,4.42
2022-11-30T06:03:09.350Z,4.42
2022-11-30T06:06:31.242Z,4.44
2022-11-30T06:09:54.543Z,4.42
2022-11-30T06:13:16.516Z,4.39
2022-11-30T06:16:39.604Z,4.40
2022-11-30T06:20:01.397Z,4.40
2022-11-30T06:23:23.521Z,4.41
2022-11-30T06:26:47.311Z,4.41
2022-11-30T06:30:10.611Z,4.39
2022-11-30T06:33:32.484Z,4.40
2022-11-30T06:36:54.046Z,4.40
2022-11-30T06:40:17.150Z,4.39
2022-11-30T06:43:40.919Z,4.40
2022-11-30T06:47:02.517Z,4.40
2022-11-30T06:50:24.414Z,4.41
2022-11-30T06:53:47.237Z,4.43
2022-11-30T06:57:08.814Z,4.44
2022-11-30T07:00:32.107Z,4.41
2022-11-30T07:03:54.390Z,4.40
2022-11-30T07:07:16.101Z,4.38
2022-11-30T07:10:41.748Z,4.39
2022-11-30T07:14:03.186Z,4.37
2022-11-30T07:17:26.562Z,4.36
2022-11-30T07:20:48.555Z,4.32
2022-11-30T07:24:30.470Z,4.30
2022-11-30T07:27:52.113Z,4.29
2022-11-30T07:31:16.937Z,4.29
2022-11-30T07:34:39.972Z,4.31
2022-11-30T07:38:08.195Z,4.30
2022-11-30T07:41:31.501Z,4.29
2022-11-30T07:44:59.149Z,4.29
2022-11-30T07:48:21.993Z,4.28
2022-11-30T07:51:46.592Z,4.28
2022-11-30T07:55:09.554Z,4.28
2022-11-30T07:58:31.975Z,4.29
2022-11-30T08:01:53.898Z,4.30
2022-11-30T08:05:16.146Z,4.29
2022-11-30T08:08:40.912Z,4.31
2022-11-30T08:12:03.046Z,4.31
2022-11-30T08:15:30.757Z,4.29
2022-11-30T08:18:54.363Z,4.29
2022-11-30T08:22:16.094Z,4.29
2022-11-30T08:25:39.732Z,4.29
2022-11-30T08:29:02.652Z,4.30
2022-11-30T08:32:24.226Z,4.30
2022-11-30T08:35:46.700Z,4.30
2022-11-30T08:39:10.162Z,4.30
2022-11-30T08:42:33.576Z,4.30
2022-11-30T08:45:57.347Z,4.31
2022-11-30T08:49:23.012Z,4.31
2022-11-30T08:52:45.590Z,4.32
2022-11-30T08:56:09.658Z,4.30
2022-11-30T08:59:33.661Z,4.31
2022-11-30T09:02:55.305Z,4.31
2022-11-30T09:06:18.969Z,4.33
2022-11-30T09:09:40.506Z,4.34
2022-11-30T09:13:02.645Z,4.32
2022-11-30T09:16:27.448Z,4.32
2022-11-30T09:19:49.369Z,4.34
2022-11-30T09:23:11.288Z,4.36
2022-11-30T09:26:33.207Z,4.37
2022-11-30T09:29:55.047Z,4.39
2022-11-30T09:33:18.466Z,4.42
2022-11-30T09:36:40.478Z,4.41
2022-11-30T09:40:02.639Z,4.42
2022-11-30T09:43:35.471Z,4.43
2022-11-30T09:47:05.538Z,4.45
2022-11-30T09:50:33.059Z,4.46
2022-11-30T09:53:58.266Z,4.48
2022-11-30T09:57:27.024Z,4.51
2022-11-30T10:00:49.047Z,4.56
2022-11-30T10:04:22.235Z,4.59
2022-11-30T10:08:03.574Z,4.61
2022-11-30T10:11:44.688Z,4.66
2022-11-30T10:15:21.861Z,4.65
2022-11-30T10:18:54.113Z,4.69
2022-11-30T10:22:27.659Z,4.69
2022-11-30T10:25:56.940Z,4.70
2022-11-30T10:29:21.285Z,4.71
2022-11-30T10:32:47.318Z,4.72
2022-11-30T10:36:14.689Z,4.73
2022-11-30T10:39:44.192Z,4.73
2022-11-30T10:43:18.671Z,4.75
2022-11-30T10:46:46.712Z,4.75
2022-11-30T10:50:09.566Z,4.74
2022-11-30T10:53:33.280Z,4.74
2022-11-30T10:56:55.566Z,4.76
2022-11-30T11:00:19.322Z,4.81
2022-11-30T11:03:41.422Z,4.77
2022-11-30T11:07:10.477Z,4.80
2022-11-30T11:10:36.538Z,4.76
2022-11-30T11:14:17.447Z,4.82
2022-11-30T11:17:40.288Z,4.82
2022-11-30T11:21:07.502Z,4.82
2022-11-30T11:24:29.521Z,4.82
2022-11-30T11:27:54.245Z,4.83
2022-11-30T11:31:26.336Z,4.86
2022-11-30T11:34:51.528Z,4.85
2022-11-30T11:38:21.805Z,4.86
2022-11-30T11:41:43.670Z,4.83
2022-11-30T11:45:07.255Z,4.86
2022-11-30T11:48:36.511Z,4.85
2022-11-30T11:52:04.041Z,4.89
2022-11-30T11:55:26.086Z,4.89
2022-11-30T11:58:52.315Z,4.91
2022-11-30T12:02:28.630Z,4.93
2022-11-30T12:05:54.415Z,4.96
2022-11-30T12:09:23.186Z,4.95
2022-11-30T12:12:49.475Z,4.95
2022-11-30T12:16:31.745Z,4.98
2022-11-30T12:20:01.877Z,4.98
2022-11-30T12:23:42.067Z,4.98
2022-11-30T12:27:15.684Z,4.97
2022-11-30T12:30:43.752Z,4.96
2022-11-30T12:34:14.024Z,4.98
2022-11-30T12:37:49.322Z,4.96
2022-11-30T12:41:26.488Z,4.94
2022-11-30T12:44:55.944Z,4.91
2022-11-30T12:48:29.404Z,4.89
2022-11-30T12:51:59.534Z,4.84
2022-11-30T12:55:29.911Z,4.81
2022-11-30T12:58:58.182Z,4.78
2022-11-30T13:02:46.058Z,4.76
2022-11-30T13:06:13.028Z,4.73
2022-11-30T13:09:38.521Z,4.65
2022-11-30T13:13:04.464Z,4.62
2022-11-30T13:16:27.557Z,4.59
2022-11-30T13:19:59.863Z,4.58
2022-11-30T13:23:32.608Z,4.58
2022-11-30T13:27:00.285Z,4.57
2022-11-30T13:30:39.883Z,4.52
2022-11-30T13:34:02.199Z,4.51
2022-11-30T13:37:28.717Z,4.45
2022-11-30T13:40:58.659Z,4.37
2022-11-30T13:44:32.579Z,4.33
2022-11-30T13:47:55.651Z,4.25
2022-11-30T13:51:35.316Z,4.17
2022-11-30T13:54:58.603Z,4.11
2022-11-30T13:58:21.432Z,4.05
2022-11-30T14:01:43.549Z,4.01
2022-11-30T14:05:26.392Z,3.97
2022-11-30T14:08:49.054Z,3.91
2022-11-30T14:12:55.974Z,3.85
2022-11-30T14:16:27.377Z,3.80
2022-11-30T14:19:52.172Z,3.75
2022-11-30T14:23:16.433Z,3.69
2022-11-30T14:26:43.666Z,3.65
2022-11-30T14:30:07.064Z,3.64
2022-11-30T14:33:39.342Z,3.58
2022-11-30T14:37:06.367Z,3.55
2022-11-30T14:40:31.071Z,3.50
2022-11-30T14:44:04.507Z,3.48
2022-11-30T14:47:28.263Z,3.42
2022-11-30T14:50:53.767Z,3.40
2022-11-30T14:54:32.429Z,3.38
2022-11-30T14:58:07.100Z,3.38
2022-11-30T15:01:33.090Z,3.37
2022-11-30T15:04:56.727Z,3.38
2022-11-30T15:08:21.052Z,3.35
2022-11-30T15:11:44.196Z,3.37
2022-11-30T15:15:14.679Z,3.39
2022-11-30T15:18:40.511Z,3.37
2022-11-30T15:22:02.347Z,3.36
2022-11-30T15:25:31.920Z,3.35
2022-11-30T15:28:59.240Z,3.35
2022-11-30T15:32:25.466Z,3.32
2022-11-30T15:36:15.861Z,3.33
2022-11-30T15:39:31.051Z,3.33
2022-11-30T15:42:54.432Z,3.32
2022-11-30T15:46:29.528Z,3.32
2022-11-30T15:49:53.914Z,3.35
2022-11-30T15:53:26.417Z,3.33
2022-11-30T15:56:57.832Z,3.35
2022-11-30T16:00:22.842Z,3.35
2022-11-30T16:04:05.832Z,3.31
2022-11-30T16:07:32.031Z,3.32
2022-11-30T16:10:55.047Z,3.31
2022-11-30T16:14:17.876Z,3.31
2022-11-30T16:17:41.964Z,3.30
2022-11-30T16:21:04.367Z,3.30
2022-11-30T16:24:25.979Z,3.30
2022-11-30T16:27:48.111Z,3.27
2022-11-30T16:31:17.298Z,3.27
2022-11-30T16:34:40.551Z,3.24
2022-11-30T16:38:02.569Z,3.28
2022-11-30T16:41:26.654Z,3.27
2022-11-30T16:44:48.343Z,3.26
2022-11-30T16:48:09.803Z,3.23
2022-11-30T16:51:34.741Z,3.23
2022-11-30T16:54:56.729Z,3.25
2022-11-30T16:58:18.839Z,3.24
2022-11-30T17:01:43.225Z,3.24
2022-11-30T17:05:05.533Z,3.25
2022-11-30T17:08:28.928Z,3.23
2022-11-30T17:11:51.741Z,3.26
2022-11-30T17:15:17.523Z,3.28
2022-11-30T17:18:39.210Z,3.27
2022-11-30T17:22:01.112Z,3.26
2022-11-30T17:25:25.326Z,3.27
2022-11-30T17:28:47.651Z,3.25
2022-11-30T17:32:09.737Z,3.28
2022-11-30T17:35:31.795Z,3.28
2022-11-30T17:38:53.864Z,3.26
2022-11-30T17:42:17.454Z,3.28
2022-11-30T17:45:41.227Z,3.29
2022-11-30T17:49:02.735Z,3.27
2022-11-30T17:52:24.786Z,3.28
2022-11-30T17:55:46.832Z,3.30
2022-11-30T17:59:09.890Z,3.29
2022-11-30T18:02:31.433Z,3.30
2022-11-30T18:05:53.096Z,3.31
2022-11-30T18:09:15.075Z,3.31
2022-11-30T18:12:37.235Z,3.29
2022-11-30T18:16:10.619Z,3.28
2022-11-30T18:19:32.613Z,3.29
2022-11-30T18:22:54.688Z,3.31
2022-11-30T18:26:17.835Z,3.29
2022-11-30T18:29:39.944Z,3.22
2022-11-30T18:33:03.425Z,3.22
2022-11-30T18:36:25.407Z,3.21
2022-11-30T18:39:47.070Z,3.21
2022-11-30T18:43:09.182Z,3.22
2022-11-30T18:46:31.243Z,3.19
2022-11-30T18:49:55.994Z,3.18
2022-11-30T18:53:18.614Z,3.16
2022-11-30T18:56:40.416Z,3.16
2022-11-30T19:00:02.047Z,3.15
2022-11-30T19:03:23.807Z,3.16
2022-11-30T19:06:46.977Z,3.16
2022-11-30T19:10:10.233Z,3.15
2022-11-30T19:13:32.314Z,3.16
2022-11-30T19:16:53.931Z,3.16
2022-11-30T19:20:16.024Z,3.12
2022-11-30T19:23:40.179Z,3.14
2022-11-30T19:27:02.116Z,3.14
2022-11-30T19:30:26.329Z,3.12
2022-11-30T19:33:50.273Z,3.09
2022-11-30T19:37:11.934Z,3.09
2022-11-30T19:40:35.280Z,3.09
2022-11-30T19:44:03.111Z,3.08
2022-11-30T19:47:25.471Z,3.09
2022-11-30T19:50:47.354Z,3.07
2022-11-30T19:54:09.164Z,3.05
2022-11-30T19:57:32.502Z,3.04
2022-11-30T20:00:54.069Z,3.06
2022-11-30T20:04:16.004Z,3.03
2022-11-30T20:07:37.937Z,3.02
2022-11-30T20:10:59.889Z,3.01
2022-11-30T20:14:23.599Z,2.99
2022-11-30T20:17:45.638Z,3.01
2022-11-30T20:21:12.784Z,3.00
2022-11-30T20:24:34.634Z,3.00
2022-11-30T20:27:56.338Z,3.01
2022-11-30T20:31:22.062Z,2.97
2022-11-30T20:34:44.779Z,2.98
2022-11-30T20:38:06.663Z,2.98
2022-11-30T20:41:28.638Z,2.97
2022-11-30T20:44:50.916Z,2.95
2022-11-30T20:48:14.413Z,2.95
2022-11-30T20:51:36.094Z,2.95
2022-11-30T20:54:57.570Z,2.93
2022-11-30T20:58:19.020Z,2.93
2022-11-30T21:01:42.524Z,2.91
2022-11-30T21:05:06.434Z,2.92
2022-11-30T21:08:28.472Z,2.91
2022-11-30T21:11:50.426Z,2.89
2022-11-30T21:15:12.494Z,2.88
2022-11-30T21:18:34.482Z,2.88
2022-11-30T21:21:59.271Z,2.88
2022-11-30T21:25:20.890Z,2.83
2022-11-30T21:28:42.878Z,2.83
2022-11-30T21:32:04.473Z,2.83
2022-11-30T21:35:26.492Z,2.83
2022-11-30T21:38:53.679Z,2.84
2022-11-30T21:42:15.700Z,2.82
2022-11-30T21:45:37.347Z,2.78
2022-11-30T21:48:59.209Z,2.78
2022-11-30T21:52:21.139Z,2.79
2022-11-30T21:55:44.058Z,2.78
2022-11-30T21:59:07.736Z,2.77
2022-11-30T22:02:29.943Z,2.76
2022-11-30T22:06:02.134Z,2.78
2022-11-30T22:09:23.608Z,2.75
2022-11-30T22:12:46.811Z,2.76
2022-11-30T22:16:11.187Z,2.77
2022-11-30T22:19:33.062Z,2.77
2022-11-30T22:22:54.718Z,2.75
2022-11-30T22:26:18.592Z,2.74
2022-11-30T22:29:41.462Z,2.74
2022-11-30T22:33:03.186Z,2.74
2022-11-30T22:36:26.541Z,2.72
2022-11-30T22:39:48.663Z,2.73
2022-11-30T22:43:10.216Z,2.73
2022-11-30T22:46:35.294Z,2.71
2022-11-30T22:49:57.072Z,2.75
2022-11-30T22:53:18.963Z,2.76
2022-11-30T22:56:42.094Z,2.72
2022-11-30T23:00:04.901Z,2.71
2022-11-30T23:03:28.982Z,2.70
2022-11-30T23:06:51.102Z,2.69
2022-11-30T23:10:14.798Z,2.68
2022-11-30T23:13:37.295Z,2.68
2022-11-30T23:16:59.215Z,2.67
2022-11-30T23:20:23.105Z,2.68
2022-11-30T23:23:45.850Z,2.65
2022-11-30T23:27:07.730Z,2.64
2022-11-30T23:30:29.798Z,2.64
2022-11-30T23:33:52.898Z,2.63
2022-11-30T23:37:16.311Z,2.63
2022-11-30T23:40:38.251Z,2.63
2022-11-30T23:44:00.105Z,2.63
2022-11-30T23:47:22.043Z,2.62
2022-11-30T23:50:43.924Z,2.59
2022-11-30T23:54:07.387Z,2.60
2022-11-30T23:57:29.359Z,2.60
